Time;durP1;ratioP1;P1;durP2;ratioP2;P2;SDS_P1;SDS_P2;PMS_P1;PMS_P2;Temp;Humidity;BMP_temperature;BMP_pressure;BME280_temperature;BME280_humidity;BME280_pressure;Samples;Min_cycle;Max_cycle;Signal;HPM_P1;HPM_P2
2022/12/22 03:25:50;;;;;;;1.60;1.20;;;9.80;98.20;;;;;;5003954;28;20539;-75
2022/12/22 03:28:17;;;;;;;1.60;1.20;;;9.80;98.20;;;;;;5003751;28;20882;-75
2022/12/22 03:30:43;;;;;;;1.63;1.20;;;9.90;98.20;;;;;;5004159;28;20829;-76
2022/12/22 03:33:12;;;;;;;1.60;1.20;;;9.90;98.20;;;;;;5002448;28;20927;-77
2022/12/22 03:35:38;;;;;;;1.60;1.10;;;9.90;98.20;;;;;;5004691;28;20467;-77
2022/12/22 03:38:05;;;;;;;1.67;1.10;;;10.00;98.20;;;;;;5005970;28;20462;-76
2022/12/22 03:40:32;;;;;;;1.60;1.10;;;10.10;98.20;;;;;;5004780;28;20857;-77
2022/12/22 03:48:29;;;;;;;1.60;1.10;;;10.30;98.20;;;;;;5004775;28;20470;-77
2022/12/22 03:50:56;;;;;;;1.60;1.10;;;10.30;98.20;;;;;;5005441;28;20462;-78
2022/12/22 03:53:22;;;;;;;1.67;1.10;;;10.40;98.20;;;;;;4996957;28;20556;-77
2022/12/22 03:55:49;;;;;;;1.60;1.10;;;10.40;98.20;;;;;;4986193;28;20465;-77
2022/12/22 03:58:16;;;;;;;1.60;1.10;;;10.40;98.20;;;;;;4986363;28;20468;-78
2022/12/22 04:00:43;;;;;;;1.63;1.20;;;10.40;98.20;;;;;;4985914;28;20497;-77
2022/12/22 04:03:09;;;;;;;1.60;1.20;;;10.30;98.20;;;;;;4983009;28;20484;-77
2022/12/22 04:05:37;;;;;;;1.60;1.10;;;10.30;98.20;;;;;;4987323;28;20457;-76
2022/12/22 04:08:05;;;;;;;1.60;1.10;;;10.30;98.20;;;;;;4985408;28;20473;-77
2022/12/22 04:13:16;;;;;;;1.63;1.20;;;10.30;98.20;;;;;;4979704;28;20484;-77
2022/12/22 04:15:43;;;;;;;1.63;1.20;;;10.40;98.20;;;;;;4988224;28;20460;-77
2022/12/22 04:18:10;;;;;;;1.70;1.30;;;10.40;98.20;;;;;;4986904;28;20556;-76
2022/12/22 04:20:38;;;;;;;1.67;1.30;;;10.40;98.20;;;;;;4989185;28;20481;-76
2022/12/22 04:23:05;;;;;;;1.63;1.20;;;10.40;98.20;;;;;;4988482;28;21001;-76
2022/12/22 04:25:32;;;;;;;1.60;1.10;;;10.40;98.20;;;;;;4991409;28;20475;-76
2022/12/22 04:27:59;;;;;;;1.60;1.20;;;10.30;98.20;;;;;;4989960;28;20541;-76
2022/12/22 04:30:25;;;;;;;1.60;1.20;;;10.30;98.20;;;;;;4991014;28;20479;-76
2022/12/22 04:32:52;;;;;;;1.60;1.10;;;10.30;98.20;;;;;;4989463;28;20994;-76
2022/12/22 04:35:19;;;;;;;1.60;1.20;;;10.30;98.20;;;;;;4989412;28;20467;-76
2022/12/22 04:37:47;;;;;;;1.60;1.10;;;10.20;98.20;;;;;;4988732;28;20457;-75
2022/12/22 04:40:14;;;;;;;1.60;1.10;;;10.20;98.20;;;;;;4986407;28;20475;-75
2022/12/22 04:42:41;;;;;;;1.70;1.20;;;10.20;98.20;;;;;;4989733;28;20630;-75
2022/12/22 04:45:11;;;;;;;1.60;1.10;;;10.20;98.20;;;;;;4989316;28;20465;-76
2022/12/22 04:47:38;;;;;;;1.60;1.20;;;10.20;98.20;;;;;;4989223;28;20543;-76
2022/12/22 04:50:06;;;;;;;1.60;1.10;;;10.20;98.20;;;;;;4990137;28;20464;-75
2022/12/22 04:52:33;;;;;;;1.63;1.20;;;10.30;98.20;;;;;;4990176;28;21062;-76
2022/12/22 04:55:01;;;;;;;1.63;1.27;;;10.30;98.20;;;;;;4982149;28;20457;-76
2022/12/22 04:57:28;;;;;;;1.60;1.10;;;10.30;98.20;;;;;;4987789;28;20461;-77
2022/12/22 04:59:55;;;;;;;1.60;1.10;;;10.30;98.20;;;;;;4988502;28;20833;-76
2022/12/22 05:02:21;;;;;;;1.60;1.10;;;10.30;98.20;;;;;;4986733;28;20497;-77
2022/12/22 05:04:48;;;;;;;1.70;1.20;;;10.30;98.20;;;;;;4990055;28;20499;-77
2022/12/22 05:07:15;;;;;;;1.60;1.10;;;10.30;98.20;;;;;;4985458;28;20462;-77
2022/12/22 05:09:42;;;;;;;1.67;1.20;;;10.30;98.20;;;;;;4977432;28;20466;-78
2022/12/22 05:14:54;;;;;;;1.60;1.10;;;10.30;98.20;;;;;;4984653;28;20846;-77
2022/12/22 05:17:21;;;;;;;1.60;1.10;;;10.30;98.20;;;;;;4985459;28;20469;-77
2022/12/22 05:19:48;;;;;;;1.60;1.20;;;10.30;98.20;;;;;;4990365;28;20465;-77
2022/12/22 05:22:15;;;;;;;1.63;1.10;;;10.40;98.20;;;;;;4990959;28;20489;-77
2022/12/22 05:24:42;;;;;;;1.63;1.20;;;10.30;98.20;;;;;;4989783;28;20461;-77
2022/12/22 05:27:12;;;;;;;1.60;1.10;;;10.30;98.20;;;;;;4979158;28;20458;-77
2022/12/22 05:29:39;;;;;;;1.60;1.10;;;10.30;98.20;;;;;;4988270;28;20984;-77
2022/12/22 05:32:06;;;;;;;1.70;1.20;;;10.30;98.20;;;;;;4984056;28;20458;-77
2022/12/22 05:34:32;;;;;;;1.60;1.10;;;10.30;98.20;;;;;;4986075;28;20552;-76
2022/12/22 05:36:59;;;;;;;1.60;1.20;;;10.30;98.20;;;;;;4986584;28;20488;-77
2022/12/22 05:39:26;;;;;;;1.60;1.10;;;10.30;98.20;;;;;;4975908;28;20465;-77
2022/12/22 05:41:53;;;;;;;1.60;1.10;;;10.30;98.20;;;;;;4986188;28;20477;-77
2022/12/22 05:44:21;;;;;;;1.60;1.10;;;10.30;98.20;;;;;;4989111;28;20501;-77
2022/12/22 05:46:50;;;;;;;1.60;1.10;;;10.30;98.20;;;;;;4987307;28;20461;-77
2022/12/22 05:49:17;;;;;;;1.60;1.20;;;10.30;98.20;;;;;;4989618;28;20947;-75
2022/12/22 05:51:44;;;;;;;1.60;1.10;;;10.30;98.20;;;;;;4989206;28;20465;-76
2022/12/22 05:54:11;;;;;;;1.67;1.20;;;10.30;98.20;;;;;;4990311;28;20488;-76
2022/12/22 05:56:38;;;;;;;1.60;1.10;;;10.30;98.20;;;;;;4987810;28;20468;-78
2022/12/22 05:59:04;;;;;;;1.60;1.10;;;10.30;98.20;;;;;;4986763;28;20479;-78
2022/12/22 06:01:33;;;;;;;1.60;1.10;;;10.30;98.20;;;;;;4987807;28;20484;-78
2022/12/22 06:03:59;;;;;;;1.60;1.20;;;10.30;98.20;;;;;;4987152;28;20826;-78
2022/12/22 06:06:26;;;;;;;1.60;1.20;;;10.30;98.20;;;;;;4983749;28;20550;-76
2022/12/22 06:08:53;;;;;;;1.60;1.20;;;10.30;98.20;;;;;;4980336;28;20465;-76
2022/12/22 06:11:20;;;;;;;1.60;1.10;;;10.30;98.20;;;;;;4988610;28;20463;-76
2022/12/22 06:13:47;;;;;;;1.60;1.10;;;10.20;98.20;;;;;;4985616;28;20487;-77
2022/12/22 06:16:14;;;;;;;1.67;1.20;;;10.20;98.20;;;;;;4980675;28;20652;-76
2022/12/22 06:18:42;;;;;;;1.60;1.10;;;10.20;98.20;;;;;;4983375;28;20488;-76
2022/12/22 06:21:09;;;;;;;1.60;1.17;;;10.20;98.20;;;;;;4975553;28;20952;-76
2022/12/22 06:23:35;;;;;;;1.63;1.20;;;10.20;98.20;;;;;;4986741;28;20520;-77
2022/12/22 06:26:03;;;;;;;1.63;1.10;;;10.10;98.20;;;;;;4987565;28;20469;-76
2022/12/22 06:28:31;;;;;;;1.60;1.10;;;10.10;98.20;;;;;;4987809;28;20560;-76
2022/12/22 06:30:57;;;;;;;1.60;1.10;;;10.20;98.20;;;;;;4985624;28;20911;-76
2022/12/22 06:33:24;;;;;;;1.63;1.20;;;10.10;98.20;;;;;;4982928;28;20504;-76
2022/12/22 06:35:52;;;;;;;1.60;1.10;;;10.20;98.20;;;;;;4986964;28;20897;-76
2022/12/22 06:38:19;;;;;;;1.70;1.20;;;10.10;98.20;;;;;;4985651;28;20659;-76
2022/12/22 06:40:47;;;;;;;1.60;1.10;;;10.10;98.20;;;;;;4985011;28;21074;-76
2022/12/22 06:43:13;;;;;;;1.60;1.10;;;10.10;98.20;;;;;;4986155;28;20492;-75
2022/12/22 06:45:42;;;;;;;1.60;1.20;;;10.10;98.20;;;;;;4985769;28;20998;-75
2022/12/22 06:48:10;;;;;;;1.60;1.10;;;10.10;98.20;;;;;;4985880;28;20233;-74
2022/12/22 06:50:37;;;;;;;1.60;1.10;;;10.10;98.20;;;;;;4985144;28;20461;-75
2022/12/22 06:53:06;;;;;;;1.60;1.10;;;10.10;98.20;;;;;;4986316;28;20516;-74
2022/12/22 06:55:33;;;;;;;1.60;1.20;;;10.10;98.20;;;;;;4985742;28;20552;-74
2022/12/22 06:58:00;;;;;;;1.60;1.10;;;10.00;98.20;;;;;;4984269;28;20461;-74
2022/12/22 07:00:27;;;;;;;1.60;1.20;;;10.00;98.20;;;;;;4986077;28;20469;-74
2022/12/22 07:02:54;;;;;;;1.60;1.10;;;10.00;98.20;;;;;;4981572;28;20493;-74
2022/12/22 07:05:22;;;;;;;1.67;1.10;;;10.00;98.20;;;;;;4987242;28;20465;-73
2022/12/22 07:07:49;;;;;;;1.60;1.10;;;10.00;98.20;;;;;;4982741;28;21113;-73
2022/12/22 07:10:17;;;;;;;1.63;1.20;;;10.00;98.20;;;;;;4985591;28;20815;-74
2022/12/22 07:12:44;;;;;;;1.60;1.20;;;10.00;98.20;;;;;;4983359;28;20482;-74
2022/12/22 07:15:14;;;;;;;1.60;1.10;;;9.90;98.20;;;;;;4987911;28;20882;-74
2022/12/22 07:17:41;;;;;;;1.60;1.10;;;9.90;98.20;;;;;;4983363;28;20465;-74
2022/12/22 07:20:09;;;;;;;1.60;1.20;;;9.90;98.20;;;;;;4983443;28;20758;-73
2022/12/22 07:22:35;;;;;;;1.60;1.20;;;9.90;98.20;;;;;;4984583;28;20497;-74
2022/12/22 07:25:02;;;;;;;1.63;1.10;;;9.90;98.20;;;;;;4987173;28;20844;-74
2022/12/22 07:27:30;;;;;;;4.87;3.00;;;9.90;98.20;;;;;;4983293;28;20465;-73
2022/12/22 07:29:58;;;;;;;1.70;1.20;;;9.90;98.20;;;;;;4974012;28;20997;-74
2022/12/22 07:32:25;;;;;;;1.60;1.20;;;9.90;98.20;;;;;;4983757;28;20481;-74
2022/12/22 07:34:54;;;;;;;1.60;1.10;;;9.90;98.20;;;;;;4981826;28;20556;-73
2022/12/22 07:37:34;;;;;;;1.60;1.20;;;9.90;98.20;;;;;;4986403;28;20465;-73
2022/12/22 07:40:01;;;;;;;1.63;1.10;;;9.90;98.20;;;;;;4986020;28;20544;-74
2022/12/22 07:42:46;;;;;;;1.60;1.10;;;9.90;98.20;;;;;;4983930;28;21926;-72
2022/12/22 07:45:16;;;;;;;1.60;1.13;;;9.90;98.20;;;;;;4984581;28;20816;-72
2022/12/22 07:47:43;;;;;;;1.63;1.20;;;9.90;98.20;;;;;;4984194;28;20615;-73
2022/12/22 07:50:27;;;;;;;1.60;1.10;;;9.90;98.20;;;;;;4985014;28;20543;-73
2022/12/22 07:52:55;;;;;;;1.60;1.10;;;9.90;98.20;;;;;;4983503;28;20504;-74
2022/12/22 07:55:22;;;;;;;1.60;1.20;;;9.90;98.20;;;;;;4988430;28;20465;-73
2022/12/22 07:57:50;;;;;;;1.60;1.20;;;9.90;98.20;;;;;;4987971;28;20620;-75
2022/12/22 08:00:19;;;;;;;1.60;1.10;;;9.90;98.20;;;;;;4987547;28;20636;-74
2022/12/22 08:02:49;;;;;;;1.60;1.10;;;9.90;98.20;;;;;;4986355;28;20575;-74
2022/12/22 08:05:17;;;;;;;1.60;1.10;;;9.90;98.20;;;;;;4987522;28;20564;-73
2022/12/22 08:07:45;;;;;;;1.60;1.20;;;9.90;98.20;;;;;;4986273;28;20531;-74
2022/12/22 08:10:12;;;;;;;1.60;1.17;;;9.90;98.20;;;;;;4987840;28;20866;-74
2022/12/22 08:12:39;;;;;;;1.67;1.20;;;9.90;98.20;;;;;;4985786;28;20496;-75
2022/12/22 08:15:08;;;;;;;1.60;1.10;;;9.90;98.20;;;;;;4989610;28;20465;-74
2022/12/22 08:17:42;;;;;;;1.60;1.10;;;9.90;98.20;;;;;;4988603;28;20560;-73
2022/12/22 08:20:50;;;;;;;1.60;1.10;;;9.90;98.20;;;;;;4990680;28;20532;-75
2022/12/22 08:23:17;;;;;;;1.60;1.20;;;10.00;98.20;;;;;;4987455;28;20515;-74
2022/12/22 08:25:45;;;;;;;1.70;1.20;;;10.00;98.20;;;;;;4984769;28;20551;-74
2022/12/22 08:28:15;;;;;;;1.60;1.10;;;10.00;98.20;;;;;;4985366;28;20552;-75
2022/12/22 08:30:43;;;;;;;1.60;1.20;;;10.00;98.20;;;;;;4985365;28;21003;-72
2022/12/22 08:33:11;;;;;;;1.60;1.20;;;10.00;98.20;;;;;;4987427;28;21011;-75
2022/12/22 08:35:39;;;;;;;1.60;1.17;;;10.00;98.20;;;;;;4988312;28;20588;-73
2022/12/22 08:38:07;;;;;;;1.60;1.10;;;10.00;98.20;;;;;;4988344;28;20465;-76
2022/12/22 08:40:35;;;;;;;1.70;1.40;;;10.00;98.20;;;;;;4989965;28;20506;-74
2022/12/22 08:43:05;;;;;;;1.60;1.10;;;10.10;98.20;;;;;;4983466;28;20861;-74
2022/12/22 08:45:32;;;;;;;1.60;1.20;;;10.10;98.20;;;;;;4984723;28;20993;-74
2022/12/22 08:48:00;;;;;;;1.60;1.20;;;10.10;98.20;;;;;;4988189;28;21017;-74
2022/12/22 08:50:29;;;;;;;1.60;1.10;;;10.10;98.20;;;;;;4987970;28;21038;-74
2022/12/22 08:53:02;;;;;;;1.60;1.10;;;10.10;98.20;;;;;;4993256;28;21362;-75
2022/12/22 08:55:30;;;;;;;1.67;1.23;;;10.10;98.20;;;;;;5009094;28;20467;-74
2022/12/22 08:57:57;;;;;;;1.60;1.20;;;10.10;98.20;;;;;;5006662;28;20946;-77
2022/12/22 09:00:25;;;;;;;1.60;1.10;;;10.10;98.20;;;;;;5006706;28;20468;-74
2022/12/22 09:02:52;;;;;;;1.60;1.20;;;10.10;98.20;;;;;;5006154;28;20499;-73
2022/12/22 09:05:20;;;;;;;1.60;1.20;;;10.10;98.20;;;;;;5004072;28;20475;-73
2022/12/22 09:07:49;;;;;;;1.60;1.10;;;10.10;98.20;;;;;;5007413;28;20467;-74
2022/12/22 09:10:16;;;;;;;1.60;1.23;;;10.10;98.20;;;;;;5005072;28;20480;-74
2022/12/22 09:12:46;;;;;;;1.60;1.10;;;10.20;98.20;;;;;;5005572;28;20546;-74
2022/12/22 09:15:13;;;;;;;1.60;1.10;;;10.20;98.20;;;;;;5001626;28;20464;-74
2022/12/22 09:17:42;;;;;;;1.60;1.10;;;10.20;98.20;;;;;;5007134;28;20464;-74
2022/12/22 09:20:10;;;;;;;1.60;1.20;;;10.20;98.20;;;;;;5007490;28;20554;-74
2022/12/22 09:22:37;;;;;;;1.70;1.30;;;10.20;98.20;;;;;;5007825;28;20500;-73
2022/12/22 09:25:07;;;;;;;1.60;1.10;;;10.20;98.20;;;;;;5007486;28;20845;-73
2022/12/22 09:27:34;;;;;;;1.60;1.20;;;10.20;98.20;;;;;;5005287;28;20468;-73
2022/12/22 09:30:01;;;;;;;1.70;1.30;;;10.20;98.20;;;;;;5005761;28;20492;-74
2022/12/22 09:32:29;;;;;;;1.63;1.20;;;10.30;98.20;;;;;;5007944;28;20476;-72
2022/12/22 09:34:56;;;;;;;1.60;1.17;;;10.30;98.20;;;;;;5003613;28;20461;-74
2022/12/22 09:37:23;;;;;;;1.60;1.10;;;10.30;98.20;;;;;;5004464;28;20561;-74
2022/12/22 09:39:50;;;;;;;1.60;1.10;;;10.30;98.20;;;;;;5006626;28;20472;-75
2022/12/22 09:42:32;;;;;;;1.60;1.10;;;10.30;98.20;;;;;;5006739;28;20487;-74
2022/12/22 09:45:00;;;;;;;1.60;1.20;;;10.30;98.20;;;;;;5006905;28;20897;-73
2022/12/22 09:47:34;;;;;;;1.60;1.10;;;10.40;98.20;;;;;;5006548;28;20518;-73
2022/12/22 09:50:02;;;;;;;1.70;1.20;;;10.40;98.20;;;;;;5005720;28;20534;-73
2022/12/22 09:52:43;;;;;;;1.60;1.13;;;10.40;98.20;;;;;;5008423;28;20495;-73
2022/12/22 09:55:26;;;;;;;1.60;1.10;;;10.40;98.20;;;;;;5007839;28;20463;-74
2022/12/22 09:57:54;;;;;;;1.60;1.10;;;10.40;98.20;;;;;;5014356;28;20455;-74
2022/12/22 10:00:25;;;;;;;1.60;1.20;;;10.50;98.20;;;;;;5009902;28;20470;-74
2022/12/22 10:03:01;;;;;;;1.60;1.20;;;10.50;98.20;;;;;;5010013;28;20484;-75
2022/12/22 10:05:38;;;;;;;1.60;1.10;;;10.50;98.20;;;;;;5011084;28;20486;-74
2022/12/22 10:08:11;;;;;;;1.67;1.20;;;10.50;98.20;;;;;;5006410;28;21023;-74
2022/12/22 10:10:38;;;;;;;1.60;1.20;;;10.50;98.20;;;;;;5013485;28;20888;-73
2022/12/22 10:13:11;;;;;;;1.70;1.50;;;10.50;98.20;;;;;;5010388;28;20514;-72
2022/12/22 10:15:40;;;;;;;1.60;1.10;;;10.40;98.20;;;;;;5008312;28;20460;-74
2022/12/22 10:18:12;;;;;;;1.63;1.10;;;10.50;98.20;;;;;;5007835;28;20463;-74
2022/12/22 10:20:49;;;;;;;1.60;1.20;;;10.50;98.20;;;;;;5016260;28;21231;-74
2022/12/22 10:23:19;;;;;;;1.70;1.30;;;10.50;98.20;;;;;;5014947;28;20487;-73
2022/12/22 10:26:02;;;;;;;1.67;1.20;;;10.40;98.20;;;;;;5007832;28;20460;-74
2022/12/22 10:28:36;;;;;;;1.60;1.10;;;10.50;98.20;;;;;;5005964;28;20456;-73
2022/12/22 10:31:19;;;;;;;1.60;1.07;;;10.50;98.20;;;;;;5013160;28;20524;-73
2022/12/22 10:33:48;;;;;;;1.60;1.10;;;10.50;98.20;;;;;;5008542;28;20486;-73
2022/12/22 10:36:20;;;;;;;1.67;1.17;;;10.50;98.20;;;;;;5337565;23;20466;-76
2022/12/22 10:38:58;;;;;;;1.60;1.10;;;10.50;98.20;;;;;;5110924;27;1273656;-78
2022/12/22 10:41:27;;;;;;;1.60;1.10;;;10.60;98.20;;;;;;5129454;27;20455;-77
2022/12/22 10:43:57;;;;;;;1.63;1.20;;;10.60;98.20;;;;;;5129866;27;20882;-76
2022/12/22 10:46:35;;;;;;;1.60;1.10;;;10.60;98.20;;;;;;5129256;27;20459;-76
2022/12/22 10:49:12;;;;;;;1.60;1.10;;;10.60;98.20;;;;;;5109004;27;20462;-77
2022/12/22 10:51:40;;;;;;;1.60;1.10;;;10.60;98.20;;;;;;5106842;27;20472;-76
2022/12/22 10:54:09;;;;;;;1.67;1.10;;;10.60;98.20;;;;;;5111124;27;20544;-77
2022/12/22 10:56:36;;;;;;;1.60;1.10;;;10.60;98.20;;;;;;5112111;27;20591;-76
2022/12/22 10:59:16;;;;;;;1.60;1.10;;;10.70;98.20;;;;;;5110786;27;20456;-74
2022/12/22 11:01:42;;;;;;;1.60;1.13;;;10.70;98.20;;;;;;5106174;27;21007;-77
2022/12/22 11:04:21;;;;;;;1.60;1.20;;;10.80;98.20;;;;;;5115728;27;20460;-77
2022/12/22 11:06:48;;;;;;;1.63;1.17;;;10.80;98.20;;;;;;5105495;27;21018;-75
2022/12/22 11:09:17;;;;;;;1.60;1.10;;;10.80;98.20;;;;;;5114507;27;20462;-75
2022/12/22 11:11:50;;;;;;;1.70;1.10;;;10.80;98.20;;;;;;5108823;27;20468;-75
2022/12/22 11:14:28;;;;;;;1.63;1.10;;;10.80;98.20;;;;;;5108993;27;20547;-76
2022/12/22 11:17:02;;;;;;;1.80;1.50;;;10.90;98.20;;;;;;5103528;27;20482;-75
2022/12/22 11:19:43;;;;;;;1.60;1.10;;;10.90;98.20;;;;;;5115775;27;20458;-76
2022/12/22 11:22:21;;;;;;;1.60;1.20;;;10.90;98.20;;;;;;5111752;27;20459;-76
2022/12/22 11:25:03;;;;;;;1.60;1.10;;;10.90;98.20;;;;;;5114911;27;20465;-76
2022/12/22 11:27:38;;;;;;;1.60;1.03;;;10.90;98.20;;;;;;5111534;27;20776;-76
2022/12/22 11:30:10;;;;;;;1.60;1.10;;;10.90;98.20;;;;;;5110125;27;20467;-75
2022/12/22 11:33:06;;;;;;;1.60;1.10;;;10.90;98.20;;;;;;5108972;27;20470;-75
2022/12/22 11:35:47;;;;;;;1.63;1.20;;;10.80;98.20;;;;;;5107236;27;20539;-75
2022/12/22 11:38:23;;;;;;;1.60;1.17;;;10.80;98.20;;;;;;5113217;27;20486;-75
2022/12/22 11:40:58;;;;;;;1.60;1.10;;;10.70;98.20;;;;;;5110617;27;20459;-75
2022/12/22 11:43:34;;;;;;;1.87;1.57;;;10.70;98.20;;;;;;5104384;27;20451;-75
2022/12/22 11:46:20;;;;;;;1.60;1.10;;;10.60;98.20;;;;;;5102765;27;20465;-75
2022/12/22 11:49:03;;;;;;;1.60;1.10;;;10.60;98.20;;;;;;5097750;27;20471;-76
2022/12/22 11:51:43;;;;;;;1.60;1.10;;;10.60;98.20;;;;;;5091580;27;20452;-76
2022/12/22 11:54:35;;;;;;;1.60;1.20;;;10.60;98.20;;;;;;5100222;28;20545;-74
2022/12/22 11:57:15;;;;;;;1.60;1.10;;;10.70;98.20;;;;;;5091596;28;21090;-75
2022/12/22 11:59:47;;;;;;;1.60;1.17;;;10.70;98.20;;;;;;5094765;28;20532;-76
2022/12/22 12:02:57;;;;;;;1.60;1.10;;;10.80;98.20;;;;;;5096866;27;20917;-76
2022/12/22 12:05:49;;;;;;;1.60;1.10;;;10.90;98.20;;;;;;5097681;27;20457;-75
2022/12/22 12:08:28;;;;;;;1.67;1.17;;;10.90;98.20;;;;;;5096500;28;20625;-76
2022/12/22 12:11:04;;;;;;;1.60;1.10;;;10.90;98.20;;;;;;5093706;28;20488;-76
2022/12/22 12:13:45;;;;;;;1.63;1.10;;;10.80;98.20;;;;;;5089662;28;21746;-76
2022/12/22 12:16:20;;;;;;;1.60;1.10;;;10.70;98.20;;;;;;5095325;27;20471;-76
2022/12/22 12:19:02;;;;;;;1.60;1.10;;;10.70;98.20;;;;;;5085972;28;21005;-75
2022/12/22 12:21:36;;;;;;;1.60;1.20;;;10.70;98.20;;;;;;5090338;28;20921;-74
2022/12/22 12:24:35;;;;;;;1.60;1.10;;;10.60;98.20;;;;;;5092771;28;20467;-75
2022/12/22 12:27:13;;;;;;;1.60;1.10;;;10.60;98.20;;;;;;5091431;28;20488;-75
2022/12/22 12:29:53;;;;;;;1.60;1.27;;;10.70;98.20;;;;;;5094075;28;20878;-76
2022/12/22 12:32:24;;;;;;;1.60;1.10;;;10.70;98.20;;;;;;5098701;28;20451;-76
2022/12/22 12:35:04;;;;;;;1.60;1.10;;;10.70;98.20;;;;;;5095807;28;20520;-76
2022/12/22 12:37:38;;;;;;;1.60;1.20;;;10.70;98.20;;;;;;5094534;28;20616;-76
2022/12/22 12:40:28;;;;;;;1.60;1.10;;;10.70;98.20;;;;;;5090145;27;20555;-75
2022/12/22 12:42:57;;;;;;;1.60;1.10;;;10.70;98.20;;;;;;5094960;28;20637;-75
2022/12/22 12:45:36;;;;;;;1.60;1.17;;;10.70;98.20;;;;;;5095043;28;20460;-75
2022/12/22 12:48:36;;;;;;;1.60;1.10;;;10.70;98.20;;;;;;5091304;28;20479;-75
2022/12/22 12:51:43;;;;;;;1.60;1.10;;;10.80;98.20;;;;;;5094626;28;20463;-74
2022/12/22 12:54:36;;;;;;;1.70;1.30;;;10.80;98.20;;;;;;5098602;27;20885;-75
2022/12/22 12:57:22;;;;;;;1.60;1.10;;;10.80;98.20;;;;;;5077887;28;20536;-75
2022/12/22 12:59:51;;;;;;;1.60;1.13;;;10.70;98.20;;;;;;5096025;28;20863;-74
2022/12/22 13:02:40;;;;;;;1.60;1.10;;;10.70;98.20;;;;;;5089549;28;20449;-76
2022/12/22 13:05:31;;;;;;;1.60;1.10;;;10.60;98.20;;;;;;5095205;27;20961;-75
2022/12/22 13:08:19;;;;;;;1.60;1.20;;;10.50;98.20;;;;;;5087335;28;20481;-76
2022/12/22 13:11:03;;;;;;;1.60;1.00;;;10.50;98.20;;;;;;5090713;28;20595;-76
2022/12/22 13:13:48;;;;;;;1.60;1.20;;;10.40;98.20;;;;;;5077492;28;20460;-75
2022/12/22 13:16:31;;;;;;;1.60;1.10;;;10.40;98.20;;;;;;5096237;28;20889;-74
2022/12/22 13:19:04;;;;;;;1.60;1.10;;;10.40;98.20;;;;;;5094972;27;20488;-76
2022/12/22 13:21:39;;;;;;;1.60;1.10;;;10.40;98.20;;;;;;5093583;28;20522;-76
2022/12/22 13:24:17;;;;;;;1.60;1.10;;;10.40;98.20;;;;;;5093286;28;20461;-75
2022/12/22 13:26:46;;;;;;;1.80;1.50;;;10.40;98.20;;;;;;5090006;28;20480;-75
2022/12/22 13:29:22;;;;;;;1.60;1.20;;;10.50;98.20;;;;;;5093837;27;20512;-76
2022/12/22 13:31:51;;;;;;;1.70;1.30;;;10.50;98.20;;;;;;5087601;27;20513;-76
2022/12/22 13:34:41;;;;;;;1.60;1.10;;;10.60;98.20;;;;;;5096936;28;20465;-76
2022/12/22 13:37:26;;;;;;;1.60;1.10;;;10.70;98.20;;;;;;5096124;28;21450;-76
2022/12/22 13:40:13;;;;;;;1.60;1.10;;;10.70;98.20;;;;;;5094838;28;20905;-76
2022/12/22 13:42:42;;;;;;;1.60;1.20;;;10.70;98.20;;;;;;5092936;28;20451;-73
2022/12/22 13:45:22;;;;;;;1.60;1.20;;;10.70;98.20;;;;;;5089918;28;20549;-76
2022/12/22 13:47:50;;;;;;;1.67;1.20;;;10.70;98.20;;;;;;5094540;28;20479;-76
2022/12/22 13:50:25;;;;;;;1.60;1.10;;;10.70;98.20;;;;;;5088893;28;20465;-74
2022/12/22 13:52:54;;;;;;;1.60;1.10;;;10.70;98.20;;;;;;5091717;28;20524;-75
2022/12/22 13:55:26;;;;;;;1.63;1.23;;;10.70;98.20;;;;;;5091977;27;20533;-76
2022/12/22 13:57:55;;;;;;;1.60;1.10;;;10.70;98.20;;;;;;5085403;28;20574;-75
2022/12/22 14:00:24;;;;;;;1.60;1.10;;;10.70;98.20;;;;;;5093976;28;20468;-75
2022/12/22 14:02:52;;;;;;;1.63;1.17;;;10.70;98.20;;;;;;5089189;28;20828;-75
2022/12/22 14:05:21;;;;;;;1.63;1.20;;;10.70;98.20;;;;;;5092345;28;20460;-74
2022/12/22 14:07:59;;;;;;;1.67;1.20;;;10.70;98.20;;;;;;5088333;28;21300;-75
2022/12/22 14:10:38;;;;;;;1.60;1.20;;;10.60;98.20;;;;;;5091215;28;20484;-75
2022/12/22 14:13:17;;;;;;;1.60;1.10;;;10.60;98.20;;;;;;5086831;28;20581;-75
2022/12/22 14:15:45;;;;;;;1.60;1.10;;;10.60;98.20;;;;;;5086595;28;20474;-74
2022/12/22 14:18:17;;;;;;;1.60;1.20;;;10.60;98.20;;;;;;5089518;28;20491;-74
2022/12/22 14:20:48;;;;;;;1.63;1.20;;;10.60;98.20;;;;;;5091437;28;20586;-74
2022/12/22 14:23:20;;;;;;;1.60;1.10;;;10.50;98.20;;;;;;5100103;28;20484;-74
2022/12/22 14:25:51;;;;;;;1.60;1.10;;;10.50;98.20;;;;;;5091583;28;20568;-76
2022/12/22 14:28:21;;;;;;;1.60;1.20;;;10.50;98.20;;;;;;5093654;27;20508;-75
2022/12/22 14:30:52;;;;;;;1.60;1.10;;;10.50;98.20;;;;;;5089319;28;20491;-76
2022/12/22 14:33:29;;;;;;;1.67;1.20;;;10.40;98.20;;;;;;5094408;28;20460;-75
2022/12/22 14:36:19;;;;;;;1.63;1.17;;;10.40;98.20;;;;;;5092478;28;20478;-75
2022/12/22 14:38:47;;;;;;;1.60;1.17;;;10.30;98.20;;;;;;5090212;28;20832;-75
2022/12/22 14:44:06;;;;;;;1.60;1.20;;;10.20;98.20;;;;;;5096561;28;20963;-75
2022/12/22 14:46:33;;;;;;;1.87;1.50;;;10.10;98.20;;;;;;5086640;28;20571;-75
2022/12/22 14:49:00;;;;;;;1.60;1.10;;;10.10;98.20;;;;;;5092133;28;20808;-75
2022/12/22 14:51:28;;;;;;;1.60;1.20;;;10.10;98.20;;;;;;5095892;28;20451;-75
2022/12/22 14:53:58;;;;;;;1.60;1.10;;;10.10;98.20;;;;;;5091327;28;20463;-76
2022/12/22 14:56:27;;;;;;;1.60;1.10;;;10.10;98.20;;;;;;5091776;28;20455;-75
2022/12/22 14:59:09;;;;;;;1.60;1.10;;;10.10;98.20;;;;;;5086395;28;20498;-75
2022/12/22 15:01:36;;;;;;;1.63;1.20;;;10.10;98.20;;;;;;5088858;28;20922;-75
2022/12/22 15:04:07;;;;;;;1.60;1.10;;;10.00;98.20;;;;;;5087302;28;20459;-75
2022/12/22 15:06:38;;;;;;;1.60;1.10;;;10.00;98.20;;;;;;5089179;28;20563;-75
2022/12/22 15:09:22;;;;;;;1.70;1.30;;;10.00;98.20;;;;;;5087318;28;20468;-76
2022/12/22 15:11:53;;;;;;;1.63;1.20;;;10.00;98.20;;;;;;5087541;28;20470;-76
2022/12/22 15:14:22;;;;;;;1.60;1.10;;;10.00;98.20;;;;;;5098703;28;20464;-75
2022/12/22 15:16:49;;;;;;;1.63;1.20;;;10.00;98.20;;;;;;5092465;28;20479;-75
2022/12/22 15:19:21;;;;;;;1.60;1.20;;;9.90;98.20;;;;;;5100663;28;20484;-76
2022/12/22 15:21:49;;;;;;;1.60;1.20;;;10.00;98.20;;;;;;5090350;28;20460;-75
2022/12/22 15:24:17;;;;;;;1.60;1.10;;;10.00;98.20;;;;;;5096688;28;20816;-75
2022/12/22 15:26:45;;;;;;;1.60;1.20;;;10.00;98.20;;;;;;5091683;28;20548;-74
2022/12/22 15:29:12;;;;;;;1.60;1.20;;;10.00;98.20;;;;;;5088134;28;20974;-75
2022/12/22 15:31:41;;;;;;;1.60;1.10;;;10.00;98.20;;;;;;5090585;27;20505;-75
2022/12/22 15:34:13;;;;;;;1.60;1.20;;;10.00;98.20;;;;;;5093811;28;20465;-75
2022/12/22 15:36:40;;;;;;;1.60;1.10;;;10.10;98.20;;;;;;5095361;28;20692;-76
2022/12/22 15:39:14;;;;;;;1.60;1.20;;;10.10;98.20;;;;;;5094732;28;20913;-76
2022/12/22 15:41:41;;;;;;;1.60;1.20;;;10.10;98.20;;;;;;5090724;28;20455;-76
2022/12/22 15:44:08;;;;;;;1.63;1.20;;;10.10;98.20;;;;;;5094587;27;20944;-76
2022/12/22 15:46:36;;;;;;;1.60;1.10;;;10.00;98.20;;;;;;5098333;28;20483;-76
2022/12/22 15:49:03;;;;;;;1.60;1.10;;;10.00;98.20;;;;;;5097403;27;20452;-76
2022/12/22 15:51:34;;;;;;;1.60;1.23;;;10.00;98.20;;;;;;5092133;28;20508;-77
2022/12/22 15:54:01;;;;;;;1.60;1.20;;;10.00;98.20;;;;;;5094360;28;20463;-77
2022/12/22 15:56:32;;;;;;;1.60;1.20;;;9.90;98.20;;;;;;5087627;28;20456;-76
2022/12/22 15:59:00;;;;;;;1.60;1.10;;;9.90;98.20;;;;;;5089989;28;20503;-76
2022/12/22 16:01:36;;;;;;;1.60;1.10;;;9.90;98.20;;;;;;5094865;28;20465;-76
2022/12/22 16:04:08;;;;;;;1.60;1.10;;;9.90;98.20;;;;;;5096289;28;20520;-75
2022/12/22 16:06:35;;;;;;;2.03;1.60;;;9.90;98.20;;;;;;5093338;27;21425;-75
2022/12/22 16:09:06;;;;;;;1.60;1.10;;;9.90;98.20;;;;;;5091258;27;20550;-75
2022/12/22 16:11:35;;;;;;;1.63;1.10;;;9.80;98.20;;;;;;5094240;28;20563;-76
2022/12/22 16:14:01;;;;;;;1.60;1.10;;;9.80;98.20;;;;;;5093428;28;20477;-77
2022/12/22 16:16:28;;;;;;;1.60;1.20;;;9.80;98.20;;;;;;5091476;28;20973;-76
2022/12/22 16:18:55;;;;;;;1.60;1.20;;;9.80;98.20;;;;;;5091270;28;20480;-75
2022/12/22 16:21:29;;;;;;;1.60;1.20;;;9.80;98.20;;;;;;5091812;27;20465;-75
2022/12/22 16:23:57;;;;;;;1.60;1.10;;;9.80;98.20;;;;;;5093986;28;20463;-75
2022/12/22 16:26:24;;;;;;;1.60;1.17;;;9.80;98.20;;;;;;5092964;28;20479;-77
2022/12/22 16:28:52;;;;;;;1.60;1.10;;;9.80;98.20;;;;;;5091230;28;20454;-77
2022/12/22 16:31:21;;;;;;;1.60;1.20;;;9.80;98.20;;;;;;5093477;28;20889;-79
2022/12/22 16:33:49;;;;;;;1.63;1.10;;;9.80;98.20;;;;;;5095872;28;20535;-76
2022/12/22 16:36:16;;;;;;;1.67;1.20;;;9.80;98.20;;;;;;5101523;28;20943;-77
2022/12/22 16:38:49;;;;;;;1.70;1.30;;;9.80;98.20;;;;;;5105297;27;20488;-77
2022/12/22 16:41:20;;;;;;;1.60;1.20;;;9.80;98.20;;;;;;5091669;28;21257;-77
2022/12/22 16:43:47;;;;;;;1.60;1.20;;;9.80;98.20;;;;;;5094173;28;20866;-76
2022/12/22 16:46:17;;;;;;;1.60;1.20;;;9.80;98.20;;;;;;5099343;27;20803;-77
2022/12/22 16:48:48;;;;;;;2.30;1.83;;;9.80;98.20;;;;;;5091742;27;20464;-77